createdAt,value
2019-01-12T00:01:20.641Z,30.40
2019-01-12T00:04:06.189Z,26.60
2019-01-12T00:06:51.798Z,32.88
2019-01-12T00:09:37.187Z,28.90
2019-01-12T00:12:22.662Z,24.87
2019-01-12T00:15:08.630Z,32.85
2019-01-12T00:17:54.569Z,30.85
2019-01-12T00:20:39.959Z,26.25
2019-01-12T00:23:25.370Z,33.00
2019-01-12T00:26:10.786Z,22.17
2019-01-12T00:28:56.936Z,29.30
2019-01-12T00:31:42.767Z,31.95
2019-01-12T00:34:28.549Z,31.50
2019-01-12T00:37:14.197Z,29.02
2019-01-12T00:40:00.299Z,22.80
2019-01-12T00:42:46.351Z,24.52
2019-01-12T00:45:32.329Z,21.65
2019-01-12T00:48:17.902Z,33.18
2019-01-12T00:51:03.546Z,28.20
2019-01-12T00:53:49.331Z,26.52
2019-01-12T00:56:35.572Z,22.42
2019-01-12T00:59:21.764Z,27.80
2019-01-12T01:02:07.885Z,26.05
2019-01-12T01:04:53.345Z,33.08
2019-01-12T01:07:39.414Z,29.77
2019-01-12T01:10:25.239Z,32.05
2019-01-12T01:13:10.807Z,26.73
2019-01-12T01:15:56.819Z,24.25
2019-01-12T01:18:42.031Z,29.00
2019-01-12T01:21:27.860Z,26.73
2019-01-12T01:24:13.654Z,32.50
2019-01-12T01:26:59.027Z,31.40
2019-01-12T01:29:45.338Z,28.35
2019-01-12T01:32:31.237Z,18.67
2019-01-12T01:35:17.888Z,14.85
2019-01-12T01:38:03.921Z,23.35
2019-01-12T01:40:49.348Z,21.73
2019-01-12T01:43:35.124Z,27.62
2019-01-12T01:46:21.077Z,30.17
2019-01-12T01:49:06.764Z,22.75
2019-01-12T01:51:52.748Z,28.92
2019-01-12T01:54:38.198Z,26.57
2019-01-12T01:57:23.986Z,17.80
2019-01-12T02:00:14.933Z,27.35
2019-01-12T02:03:00.347Z,23.80
2019-01-12T02:05:45.962Z,26.23
2019-01-12T02:08:31.547Z,30.27
2019-01-12T02:11:17.157Z,22.25
2019-01-12T02:14:03.756Z,24.63
2019-01-12T02:16:49.245Z,22.55
2019-01-12T02:19:34.560Z,16.87
2019-01-12T02:22:20.183Z,20.72
2019-01-12T02:25:06.505Z,22.52
2019-01-12T02:27:52.603Z,18.55
2019-01-12T02:30:38.174Z,20.92
2019-01-12T02:33:23.748Z,23.30
2019-01-12T02:36:09.483Z,16.87
2019-01-12T02:38:54.842Z,15.23
2019-01-12T02:41:40.279Z,18.55
2019-01-12T02:44:26.300Z,21.40
2019-01-12T02:47:11.809Z,18.73
2019-01-12T02:49:57.890Z,26.85
2019-01-12T02:52:43.198Z,22.62
2019-01-12T02:55:29.030Z,20.10
2019-01-12T02:58:14.878Z,15.95
2019-01-12T03:01:00.384Z,25.20
2019-01-12T03:03:46.490Z,20.57
2019-01-12T03:06:32.663Z,18.92
2019-01-12T03:09:18.659Z,21.65
2019-01-12T03:12:05.023Z,22.07
2019-01-12T03:14:50.597Z,20.55
2019-01-12T03:17:36.779Z,21.77
2019-01-12T03:20:22.170Z,18.05
2019-01-12T03:23:07.840Z,22.98
2019-01-12T03:25:53.849Z,21.30
2019-01-12T03:28:39.509Z,21.48
2019-01-12T03:31:24.919Z,20.02
2019-01-12T03:34:10.921Z,16.32
2019-01-12T03:36:56.459Z,16.32
2019-01-12T03:39:42.219Z,12.35
2019-01-12T03:42:27.666Z,15.95
2019-01-12T03:45:14.636Z,14.20
2019-01-12T03:47:59.789Z,15.13
2019-01-12T03:50:45.481Z,18.60
2019-01-12T03:53:31.398Z,16.27
2019-01-12T03:56:16.741Z,11.55
2019-01-12T03:59:02.555Z,8.60
2019-01-12T04:01:49.075Z,13.48
2019-01-12T04:04:34.822Z,17.17
2019-01-12T04:07:20.279Z,13.60
2019-01-12T04:10:06.456Z,11.68
2019-01-12T04:12:53.502Z,11.65
2019-01-12T04:15:39.222Z,16.62
2019-01-12T04:18:24.931Z,6.37
2019-01-12T04:21:11.032Z,8.25
2019-01-12T04:23:56.869Z,8.40
2019-01-12T04:26:42.704Z,8.75
2019-01-12T04:29:28.272Z,8.55
2019-01-12T04:32:14.497Z,3.37
2019-01-12T04:35:00.476Z,5.30
2019-01-12T04:37:46.330Z,2.55
2019-01-12T04:40:32.116Z,2.10
2019-01-12T04:43:17.825Z,4.22
2019-01-12T04:46:03.563Z,2.62
2019-01-12T04:48:49.508Z,3.52
2019-01-12T04:51:35.429Z,2.30
2019-01-12T04:54:21.009Z,4.45
2019-01-12T04:57:06.516Z,4.17
2019-01-12T04:59:52.560Z,7.30
2019-01-12T05:02:38.204Z,5.35
2019-01-12T05:05:24.682Z,9.60
2019-01-12T05:08:10.496Z,7.65
2019-01-12T05:10:55.978Z,3.77
2019-01-12T05:13:41.519Z,6.35
2019-01-12T05:16:27.402Z,7.08
2019-01-12T05:19:13.131Z,8.70
2019-01-12T05:21:58.931Z,7.22
2019-01-12T05:24:44.583Z,7.15
2019-01-12T05:27:30.403Z,9.23
2019-01-12T05:30:22.446Z,4.50
2019-01-12T05:33:08.583Z,7.00
2019-01-12T05:35:54.674Z,3.45
2019-01-12T05:38:40.175Z,3.55
2019-01-12T05:41:25.594Z,5.62
2019-01-12T05:44:11.294Z,6.33
2019-01-12T05:46:57.145Z,5.87
2019-01-12T05:49:42.798Z,4.40
2019-01-12T05:52:28.871Z,4.35
2019-01-12T05:55:14.614Z,8.90
2019-01-12T05:58:00.395Z,3.08
2019-01-12T06:00:46.326Z,4.20
2019-01-12T06:03:31.910Z,3.67
2019-01-12T06:06:17.607Z,7.65
2019-01-12T06:09:06.147Z,7.45
2019-01-12T06:11:51.612Z,8.63
2019-01-12T06:14:37.188Z,6.22
2019-01-12T06:17:22.772Z,5.58
2019-01-12T06:20:10.424Z,6.92
2019-01-12T06:22:56.324Z,5.15
2019-01-12T06:25:41.907Z,7.97
2019-01-12T06:28:27.333Z,7.25
2019-01-12T06:31:12.974Z,5.25
2019-01-12T06:33:59.067Z,5.70
2019-01-12T06:36:44.759Z,7.37
2019-01-12T06:39:30.744Z,5.95
2019-01-12T06:42:16.743Z,8.80
2019-01-12T06:45:03.251Z,6.83
2019-01-12T06:47:48.939Z,8.15
2019-01-12T06:50:35.224Z,4.17
2019-01-12T06:53:20.575Z,5.70
2019-01-12T06:56:10.795Z,4.55
2019-01-12T06:58:54.187Z,4.47
2019-01-12T07:01:40.218Z,4.10
2019-01-12T07:04:26.097Z,6.15
2019-01-12T07:07:11.619Z,4.72
2019-01-12T07:09:57.320Z,2.75
2019-01-12T07:12:44.092Z,4.70
2019-01-12T07:15:29.941Z,5.22
2019-01-12T07:18:15.902Z,6.05
2019-01-12T07:21:03.338Z,3.62
2019-01-12T07:23:49.067Z,6.30
2019-01-12T07:26:35.922Z,4.75
2019-01-12T07:29:21.654Z,4.30
2019-01-12T07:32:07.488Z,3.20
2019-01-12T07:34:54.256Z,4.92
2019-01-12T07:37:40.289Z,3.20
2019-01-12T07:40:25.630Z,4.35
2019-01-12T07:43:11.337Z,4.87
2019-01-12T07:45:58.067Z,3.85
2019-01-12T07:48:43.904Z,5.70
2019-01-12T07:51:32.978Z,7.80
2019-01-12T07:54:18.873Z,5.50
2019-01-12T07:57:04.779Z,6.35
2019-01-12T07:59:50.803Z,5.42
2019-01-12T08:02:36.106Z,5.90
2019-01-12T08:05:21.867Z,5.78
2019-01-12T08:08:07.424Z,5.00
2019-01-12T08:10:53.274Z,5.08
2019-01-12T08:13:39.298Z,7.35
2019-01-12T08:16:24.993Z,2.67
2019-01-12T08:19:10.582Z,4.47
2019-01-12T08:21:56.761Z,5.80
2019-01-12T08:24:42.310Z,7.15
2019-01-12T08:27:27.899Z,2.20
2019-01-12T08:30:15.675Z,8.25
2019-01-12T08:33:01.282Z,4.70
2019-01-12T08:35:46.892Z,9.23
2019-01-12T08:38:32.612Z,4.90
2019-01-12T08:41:18.240Z,9.90
2019-01-12T08:44:04.086Z,6.72
2019-01-12T08:46:50.175Z,4.40
2019-01-12T08:49:35.934Z,7.90
2019-01-12T08:52:21.974Z,9.65
2019-01-12T08:55:09.336Z,9.30
2019-01-12T08:57:55.492Z,5.95
2019-01-12T09:00:41.148Z,5.72
2019-01-12T09:03:27.591Z,10.38
2019-01-12T09:06:13.183Z,5.45
2019-01-12T09:08:59.008Z,5.85
2019-01-12T09:11:44.867Z,5.62
2019-01-12T09:14:31.567Z,4.50
2019-01-12T09:17:17.627Z,5.53
2019-01-12T09:20:05.433Z,7.33
2019-01-12T09:22:51.134Z,7.85
2019-01-12T09:25:36.904Z,6.15
2019-01-12T09:28:22.666Z,7.65
2019-01-12T09:31:08.384Z,4.35
2019-01-12T09:33:54.565Z,6.10
2019-01-12T09:36:40.717Z,7.33
2019-01-12T09:39:26.514Z,7.35
2019-01-12T09:42:12.503Z,7.33
2019-01-12T09:44:58.246Z,5.17
2019-01-12T09:47:44.322Z,4.65
2019-01-12T09:50:30.284Z,5.35
2019-01-12T09:53:16.103Z,3.65
2019-01-12T09:56:01.688Z,6.75
2019-01-12T09:58:47.741Z,6.55
2019-01-12T10:01:33.700Z,5.72
2019-01-12T10:04:22.131Z,3.47
2019-01-12T10:07:07.831Z,5.47
2019-01-12T10:09:53.648Z,6.70
2019-01-12T10:12:39.850Z,7.17
2019-01-12T10:15:25.607Z,8.40
2019-01-12T10:18:11.268Z,5.05
2019-01-12T10:20:57.480Z,5.35
2019-01-12T10:23:43.056Z,7.40
2019-01-12T10:26:28.783Z,9.43
2019-01-12T10:29:14.942Z,5.42
2019-01-12T10:32:00.868Z,8.18
2019-01-12T10:34:46.884Z,10.00
2019-01-12T10:37:32.106Z,8.63
2019-01-12T10:40:18.236Z,11.25
2019-01-12T10:43:04.228Z,9.38
2019-01-12T10:46:04.232Z,11.38
2019-01-12T10:48:50.179Z,13.93
2019-01-12T10:51:36.034Z,8.10
2019-01-12T10:54:21.825Z,12.15
2019-01-12T10:57:07.950Z,7.00
2019-01-12T10:59:53.479Z,8.78
2019-01-12T11:02:39.484Z,9.68
2019-01-12T11:05:25.247Z,9.50
2019-01-12T11:08:10.891Z,8.33
2019-01-12T11:10:56.590Z,8.05
2019-01-12T11:13:42.088Z,10.08
2019-01-12T11:16:27.864Z,10.23
2019-01-12T11:19:13.883Z,11.83
2019-01-12T11:21:59.804Z,7.92
2019-01-12T11:24:46.005Z,10.40
2019-01-12T11:27:31.583Z,8.43
2019-01-12T11:30:18.394Z,10.35
2019-01-12T11:33:04.911Z,15.65
2019-01-12T11:35:51.195Z,11.75
2019-01-12T11:38:36.877Z,11.38
2019-01-12T11:41:22.556Z,15.05
2019-01-12T11:44:08.378Z,11.85
2019-01-12T11:46:54.453Z,14.28
2019-01-12T11:49:40.442Z,15.18
2019-01-12T11:52:26.055Z,14.43
2019-01-12T11:55:12.314Z,10.58
2019-01-12T11:57:58.326Z,12.82
2019-01-12T12:00:43.902Z,12.00
2019-01-12T12:03:30.337Z,13.50
2019-01-12T12:06:15.821Z,18.87
2019-01-12T12:09:43.249Z,17.98
2019-01-12T12:12:28.880Z,14.65
2019-01-12T12:15:14.706Z,13.53
2019-01-12T12:18:00.314Z,13.88
2019-01-12T12:20:45.654Z,11.57
2019-01-12T12:23:32.179Z,12.05
2019-01-12T12:26:17.975Z,10.13
2019-01-12T12:29:03.750Z,12.40
2019-01-12T12:31:49.583Z,14.55
2019-01-12T12:34:35.500Z,12.35
2019-01-12T12:37:21.629Z,11.78
2019-01-12T12:40:08.451Z,12.18
2019-01-12T12:42:55.332Z,14.23
2019-01-12T12:45:41.443Z,9.80
2019-01-12T12:50:50.082Z,11.03
2019-01-12T12:53:35.724Z,7.45
2019-01-12T12:56:21.479Z,9.33
2019-01-12T12:59:06.787Z,10.05
2019-01-12T13:01:52.192Z,11.50
2019-01-12T13:04:38.160Z,11.63
2019-01-12T13:07:24.227Z,9.30
2019-01-12T13:10:18.347Z,9.00
2019-01-12T13:13:04.794Z,10.63
2019-01-12T13:15:50.444Z,8.70
2019-01-12T13:18:37.234Z,9.30
2019-01-12T13:21:23.189Z,9.95
2019-01-12T13:24:09.339Z,10.72
2019-01-12T13:26:55.130Z,9.45
2019-01-12T13:29:40.818Z,9.30
2019-01-12T13:32:29.604Z,8.50
2019-01-12T13:35:15.523Z,6.58
2019-01-12T13:38:01.241Z,6.05
2019-01-12T13:40:47.338Z,5.45
2019-01-12T13:43:32.854Z,5.58
2019-01-12T13:46:18.812Z,4.70
2019-01-12T13:49:04.936Z,4.60
2019-01-12T13:51:51.294Z,5.00
2019-01-12T13:54:37.145Z,4.62
2019-01-12T13:57:22.807Z,3.33
2019-01-12T14:00:12.936Z,3.35
2019-01-12T14:02:58.657Z,3.85
2019-01-12T14:05:45.133Z,4.15
2019-01-12T14:08:31.503Z,4.83
2019-01-12T14:11:17.833Z,3.47
2019-01-12T14:14:03.850Z,4.37
2019-01-12T14:16:49.390Z,4.37
2019-01-12T14:19:35.192Z,4.95
2019-01-12T14:22:21.438Z,9.05
2019-01-12T14:25:06.964Z,5.37
2019-01-12T14:27:54.891Z,10.43
2019-01-12T14:30:40.658Z,9.33
2019-01-12T14:33:26.570Z,8.43
2019-01-12T14:36:13.431Z,14.00
2019-01-12T14:38:59.023Z,12.63
2019-01-12T14:41:44.710Z,15.13
2019-01-12T14:44:31.026Z,13.08
2019-01-12T14:47:17.435Z,7.92
2019-01-12T14:50:04.413Z,16.37
2019-01-12T14:52:49.912Z,12.93
2019-01-12T14:55:35.821Z,18.50
2019-01-12T14:58:21.578Z,16.20
2019-01-12T15:01:06.947Z,9.35
2019-01-12T15:03:52.761Z,11.63
2019-01-12T15:06:38.827Z,14.13
2019-01-12T15:09:24.282Z,19.25
2019-01-12T15:12:10.443Z,16.93
2019-01-12T15:14:59.931Z,11.97
2019-01-12T15:17:46.039Z,11.30
2019-01-12T15:20:31.547Z,19.07
2019-01-12T15:23:17.069Z,14.40
2019-01-12T15:26:03.319Z,13.50
2019-01-12T15:28:49.039Z,16.82
2019-01-12T15:31:35.108Z,15.13
2019-01-12T15:34:20.949Z,16.42
2019-01-12T15:37:06.307Z,14.55
2019-01-12T15:39:52.175Z,16.80
2019-01-12T15:42:37.614Z,15.95
2019-01-12T15:45:23.617Z,15.75
2019-01-12T15:48:10.058Z,17.87
2019-01-12T15:50:55.570Z,17.62
2019-01-12T15:53:40.940Z,12.25
2019-01-12T15:56:26.618Z,9.73
2019-01-12T15:59:12.454Z,10.98
2019-01-12T16:01:58.142Z,15.90
2019-01-12T16:04:44.085Z,8.90
2019-01-12T16:07:29.985Z,14.83
2019-01-12T16:10:15.766Z,18.32
2019-01-12T16:13:02.563Z,12.35
2019-01-12T16:15:48.471Z,17.40
2019-01-12T16:18:34.641Z,22.98
2019-01-12T16:21:20.354Z,15.18
2019-01-12T16:24:05.782Z,16.87
2019-01-12T16:26:52.026Z,10.13
2019-01-12T16:29:37.714Z,24.18
2019-01-12T16:32:23.645Z,20.23
2019-01-12T16:35:11.219Z,15.15
2019-01-12T16:37:57.172Z,14.58
2019-01-12T16:40:42.788Z,11.50
2019-01-12T16:43:28.536Z,18.00
2019-01-12T16:46:14.214Z,15.38
2019-01-12T16:49:00.066Z,13.75
2019-01-12T16:51:45.503Z,12.70
2019-01-12T16:54:31.330Z,16.60
2019-01-12T16:57:16.970Z,8.55
2019-01-12T17:00:05.590Z,18.57
2019-01-12T17:02:51.600Z,15.80
2019-01-12T17:05:37.889Z,14.83
2019-01-12T17:08:23.677Z,13.75
2019-01-12T17:11:09.772Z,16.65
2019-01-12T17:13:55.723Z,16.95
2019-01-12T17:16:41.550Z,15.38
2019-01-12T17:19:27.443Z,19.67
2019-01-12T17:22:12.731Z,15.68
2019-01-12T17:24:58.225Z,25.05
2019-01-12T17:27:43.738Z,14.53
2019-01-12T17:30:29.461Z,20.77
2019-01-12T17:33:15.198Z,21.20
2019-01-12T17:36:01.029Z,25.12
2019-01-12T17:38:47.351Z,12.35
2019-01-12T17:41:32.758Z,16.95
2019-01-12T17:44:18.459Z,16.67
2019-01-12T17:47:04.635Z,19.60
2019-01-12T17:49:50.045Z,23.75
2019-01-12T17:52:36.412Z,19.75
2019-01-12T17:55:23.891Z,18.92
2019-01-12T17:58:09.715Z,18.40
2019-01-12T18:00:55.072Z,26.37
2019-01-12T18:03:41.061Z,13.48
2019-01-12T18:06:27.180Z,16.97
2019-01-12T18:09:13.449Z,11.00
2019-01-12T18:11:58.907Z,21.02
2019-01-12T18:14:44.951Z,14.65
2019-01-12T18:17:31.749Z,12.00
2019-01-12T18:20:17.559Z,12.73
2019-01-12T18:23:04.637Z,10.78
2019-01-12T18:25:49.942Z,15.75
2019-01-12T18:28:35.672Z,12.23
2019-01-12T18:31:22.273Z,12.30
2019-01-12T18:34:08.004Z,16.73
2019-01-12T18:36:53.798Z,19.02
2019-01-12T18:39:39.444Z,17.57
2019-01-12T18:42:25.372Z,19.30
2019-01-12T18:45:13.360Z,15.78
2019-01-12T18:47:59.474Z,17.25
2019-01-12T18:50:45.590Z,22.20
2019-01-12T18:53:31.199Z,21.82
2019-01-12T18:56:16.980Z,24.60
2019-01-12T18:59:02.479Z,19.48
2019-01-12T19:01:48.332Z,26.07
2019-01-12T19:04:34.534Z,20.00
2019-01-12T19:07:26.082Z,19.67
2019-01-12T19:10:12.058Z,23.60
2019-01-12T19:12:58.064Z,20.05
2019-01-12T19:15:44.214Z,18.87
2019-01-12T19:18:30.131Z,20.15
2019-01-12T19:21:15.602Z,13.70
2019-01-12T19:24:00.906Z,14.87
2019-01-12T19:26:46.222Z,21.40
2019-01-12T19:29:31.575Z,13.28
2019-01-12T19:32:17.188Z,12.78
2019-01-12T19:35:03.205Z,14.45
2019-01-12T19:37:49.196Z,14.00
2019-01-12T19:40:35.524Z,16.62
2019-01-12T19:43:21.612Z,15.38
2019-01-12T19:46:07.526Z,14.07
2019-01-12T19:48:53.881Z,19.60
2019-01-12T19:51:39.586Z,14.70
2019-01-12T19:54:25.604Z,14.63
2019-01-12T19:57:10.894Z,12.30
2019-01-12T19:59:58.362Z,15.43
2019-01-12T20:02:45.566Z,15.50
2019-01-12T20:05:31.291Z,15.50
2019-01-12T20:08:16.719Z,9.55
2019-01-12T20:11:02.643Z,15.93
2019-01-12T20:13:48.426Z,19.95
2019-01-12T20:16:34.387Z,18.07
2019-01-12T20:19:19.719Z,8.45
2019-01-12T20:22:05.874Z,14.70
2019-01-12T20:24:51.629Z,14.60
2019-01-12T20:27:37.653Z,15.03
2019-01-12T20:31:10.385Z,20.08
2019-01-12T20:34:11.127Z,16.07
2019-01-12T20:37:28.435Z,19.75
2019-01-12T20:40:54.791Z,16.15
2019-01-12T20:44:18.385Z,13.75
2019-01-12T20:47:37.727Z,13.50
2019-01-12T20:51:06.217Z,10.53
2019-01-12T20:54:19.595Z,11.03
2019-01-12T20:57:26.154Z,11.38
2019-01-12T21:00:30.259Z,10.20
2019-01-12T21:03:36.495Z,6.25
2019-01-12T21:06:33.198Z,7.15
2019-01-12T21:09:55.302Z,7.15
2019-01-12T21:13:12.427Z,6.17
2019-01-12T21:16:02.691Z,5.80
2019-01-12T21:18:48.374Z,6.37
2019-01-12T21:21:34.389Z,9.00
2019-01-12T21:24:20.083Z,5.17
2019-01-12T21:27:07.817Z,6.37
2019-01-12T21:29:53.235Z,9.28
2019-01-12T21:32:39.087Z,6.53
2019-01-12T21:35:24.740Z,6.17
2019-01-12T21:38:10.135Z,12.33
2019-01-12T21:40:56.315Z,9.45
2019-01-12T21:43:42.235Z,8.35
2019-01-12T21:46:28.123Z,11.60
2019-01-12T21:49:14.214Z,13.88
2019-01-12T21:52:00.160Z,8.83
2019-01-12T21:54:45.894Z,9.73
2019-01-12T21:57:32.294Z,9.68
2019-01-12T22:00:18.109Z,13.65
2019-01-12T22:03:04.861Z,8.88
2019-01-12T22:05:50.351Z,4.75
2019-01-12T22:08:36.030Z,8.90
2019-01-12T22:11:22.158Z,4.45
2019-01-12T22:14:07.954Z,8.70
2019-01-12T22:16:53.883Z,5.85
2019-01-12T22:19:39.596Z,7.72
2019-01-12T22:22:25.210Z,10.25
2019-01-12T22:25:11.171Z,8.13
2019-01-12T22:27:56.800Z,9.03
2019-01-12T22:30:42.261Z,11.85
2019-01-12T22:33:28.044Z,11.28
2019-01-12T22:36:13.672Z,5.40
2019-01-12T22:38:59.701Z,5.37
2019-01-12T22:41:45.074Z,5.12
2019-01-12T22:44:31.012Z,8.55
2019-01-12T22:47:16.597Z,4.97
2019-01-12T22:50:03.043Z,6.12
2019-01-12T22:52:48.723Z,3.92
2019-01-12T22:55:34.296Z,6.55
2019-01-12T22:58:19.627Z,9.18
2019-01-12T23:01:34.059Z,6.28
2019-01-12T23:04:24.755Z,8.98
2019-01-12T23:07:11.525Z,15.30
2019-01-12T23:09:57.931Z,10.38
2019-01-12T23:12:43.864Z,10.20
2019-01-12T23:15:29.613Z,11.35
2019-01-12T23:18:15.344Z,12.65
2019-01-12T23:21:01.095Z,16.62
2019-01-12T23:23:47.115Z,12.88
2019-01-12T23:26:33.140Z,21.65
2019-01-12T23:29:19.128Z,16.70
2019-01-12T23:32:05.032Z,17.20
2019-01-12T23:34:50.792Z,18.32
2019-01-12T23:37:36.602Z,17.12
2019-01-12T23:40:22.251Z,22.52
2019-01-12T23:43:08.024Z,19.40
2019-01-12T23:45:54.001Z,17.37
2019-01-12T23:48:39.867Z,20.43
2019-01-12T23:51:25.589Z,15.43
2019-01-12T23:54:11.554Z,31.02
2019-01-12T23:56:57.213Z,14.80
2019-01-12T23:59:43.180Z,17.50
